createdAt,value
2023-05-21T00:00:49.461Z,14.40
2023-05-21T00:03:16.442Z,14.40
2023-05-21T00:05:44.198Z,14.40
2023-05-21T00:08:12.435Z,14.40
2023-05-21T00:10:39.206Z,14.30
2023-05-21T00:13:06.025Z,14.30
2023-05-21T00:15:33.033Z,14.20
2023-05-21T00:18:00.130Z,14.20
2023-05-21T00:20:27.015Z,14.10
2023-05-21T00:22:54.019Z,14.10
2023-05-21T00:25:22.361Z,14.10
2023-05-21T00:27:49.443Z,14.00
2023-05-21T00:30:16.564Z,14.00
2023-05-21T00:32:43.554Z,14.00
2023-05-21T00:35:10.603Z,13.90
2023-05-21T00:37:37.537Z,13.90
2023-05-21T00:40:05.626Z,13.90
2023-05-21T00:42:34.418Z,13.80
2023-05-21T00:45:01.805Z,13.80
2023-05-21T00:47:28.886Z,13.80
2023-05-21T00:49:55.851Z,13.80
2023-05-21T00:52:23.170Z,13.80
2023-05-21T00:54:50.382Z,13.80
2023-05-21T00:57:18.721Z,13.80
2023-05-21T00:59:47.385Z,13.80
2023-05-21T01:02:14.450Z,13.80
2023-05-21T01:04:41.491Z,13.80
2023-05-21T01:07:08.541Z,13.80
2023-05-21T01:09:35.820Z,13.80
2023-05-21T01:12:03.355Z,13.70
2023-05-21T01:14:31.429Z,13.70
2023-05-21T01:17:00.668Z,13.70
2023-05-21T01:19:28.405Z,13.70
2023-05-21T01:22:00.407Z,13.70
2023-05-21T01:24:28.626Z,13.70
2023-05-21T01:26:55.680Z,13.60
2023-05-21T01:29:35.267Z,13.60
2023-05-21T01:32:07.389Z,13.50
2023-05-21T01:34:40.771Z,13.50
2023-05-21T01:37:17.158Z,13.50
2023-05-21T01:39:53.866Z,13.40
2023-05-21T01:42:23.567Z,13.40
2023-05-21T01:44:53.931Z,13.40
2023-05-21T01:47:23.650Z,13.30
2023-05-21T01:49:51.020Z,13.30
2023-05-21T01:52:18.249Z,13.30
2023-05-21T01:54:46.478Z,13.30
2023-05-21T01:57:13.466Z,13.30
2023-05-21T01:59:40.667Z,13.30
2023-05-21T02:02:07.730Z,13.30
2023-05-21T02:04:34.673Z,13.20
2023-05-21T02:07:01.698Z,13.20
2023-05-21T02:09:28.748Z,13.30
2023-05-21T02:11:56.938Z,13.20
2023-05-21T02:14:24.068Z,13.20
2023-05-21T02:16:51.207Z,13.20
2023-05-21T02:19:18.405Z,13.20
2023-05-21T02:21:45.293Z,13.20
2023-05-21T02:24:12.527Z,13.20
2023-05-21T02:26:39.375Z,13.10
2023-05-21T02:29:07.873Z,13.10
2023-05-21T02:31:34.783Z,13.10
2023-05-21T02:34:01.917Z,13.00
2023-05-21T02:36:28.854Z,13.00
2023-05-21T02:38:55.885Z,13.00
2023-05-21T02:41:22.867Z,12.90
2023-05-21T02:43:49.672Z,12.90
2023-05-21T02:46:17.979Z,12.80
2023-05-21T02:48:44.966Z,12.80
2023-05-21T02:51:11.887Z,12.70
2023-05-21T02:53:39.473Z,12.70
2023-05-21T02:56:06.571Z,12.60
2023-05-21T02:58:33.706Z,12.60
2023-05-21T03:01:00.615Z,12.60
2023-05-21T03:03:29.047Z,12.60
2023-05-21T03:05:57.338Z,12.60
2023-05-21T03:08:27.247Z,12.60
2023-05-21T03:10:54.243Z,12.60
2023-05-21T03:13:21.197Z,12.50
2023-05-21T03:15:48.317Z,12.50
2023-05-21T03:18:15.366Z,12.40
2023-05-21T03:20:43.868Z,12.40
2023-05-21T03:23:10.717Z,12.40
2023-05-21T03:25:37.757Z,12.40
2023-05-21T03:28:05.104Z,12.40
2023-05-21T03:30:32.063Z,12.40
2023-05-21T03:32:59.014Z,12.40
2023-05-21T03:35:25.872Z,12.40
2023-05-21T03:37:54.277Z,12.40
2023-05-21T03:40:21.142Z,12.40
2023-05-21T03:42:48.091Z,12.40
2023-05-21T03:45:15.033Z,12.40
2023-05-21T03:47:42.093Z,12.40
2023-05-21T03:50:09.864Z,12.50
2023-05-21T03:52:36.760Z,12.50
2023-05-21T03:55:05.788Z,12.50
2023-05-21T03:57:32.735Z,12.50
2023-05-21T03:59:59.773Z,12.60
2023-05-21T04:02:26.982Z,12.60
2023-05-21T04:04:54.507Z,12.70
2023-05-21T04:07:21.787Z,12.70
2023-05-21T04:09:48.840Z,12.70
2023-05-21T04:12:17.127Z,12.70
2023-05-21T04:14:44.001Z,12.80
2023-05-21T04:17:10.864Z,12.80
2023-05-21T04:19:37.734Z,12.80
2023-05-21T04:22:05.033Z,12.90
2023-05-21T04:24:31.885Z,13.00
2023-05-21T04:26:58.955Z,13.00
2023-05-21T04:29:27.146Z,13.10
2023-05-21T04:31:54.104Z,13.20
2023-05-21T04:34:20.937Z,13.30
2023-05-21T04:36:48.250Z,13.40
2023-05-21T04:39:15.151Z,13.40
2023-05-21T04:41:42.053Z,13.50
2023-05-21T04:44:09.184Z,13.60
2023-05-21T04:46:38.833Z,13.70
2023-05-21T04:49:07.095Z,13.80
2023-05-21T04:51:33.946Z,13.80
2023-05-21T04:54:00.842Z,14.00
2023-05-21T04:56:27.709Z,14.10
2023-05-21T04:58:54.561Z,14.20
2023-05-21T05:01:23.213Z,14.30
2023-05-21T05:03:51.697Z,14.40
2023-05-21T05:06:18.651Z,14.50
2023-05-21T05:08:45.975Z,14.60
2023-05-21T05:11:12.841Z,14.70
2023-05-21T05:13:41.266Z,14.80
2023-05-21T05:16:08.278Z,14.90
2023-05-21T05:18:35.572Z,15.00
2023-05-21T05:21:04.087Z,15.10
2023-05-21T05:23:31.108Z,15.30
2023-05-21T05:25:58.020Z,15.40
2023-05-21T05:28:24.871Z,15.50
2023-05-21T05:30:51.834Z,15.60
2023-05-21T05:33:18.753Z,15.70
2023-05-21T05:35:45.976Z,15.80
2023-05-21T05:38:14.246Z,15.90
2023-05-21T05:40:41.147Z,16.00
2023-05-21T05:43:09.188Z,16.10
2023-05-21T05:45:36.348Z,16.20
2023-05-21T05:48:03.704Z,16.20
2023-05-21T05:50:30.870Z,16.30
2023-05-21T05:52:58.002Z,16.40
2023-05-21T05:55:26.199Z,16.50
2023-05-21T05:57:53.316Z,16.70
2023-05-21T06:00:20.220Z,16.80
2023-05-21T06:02:47.066Z,17.00
2023-05-21T06:05:14.113Z,17.10
2023-05-21T06:07:41.518Z,17.30
2023-05-21T06:10:09.405Z,17.40
2023-05-21T06:12:37.723Z,17.60
2023-05-21T06:15:05.563Z,17.80
2023-05-21T06:17:32.673Z,17.90
2023-05-21T06:19:59.662Z,18.00
2023-05-21T06:22:26.597Z,18.20
2023-05-21T06:24:53.920Z,18.40
2023-05-21T06:27:20.882Z,18.60
2023-05-21T06:29:49.125Z,18.80
2023-05-21T06:32:16.006Z,19.00
2023-05-21T06:34:42.900Z,19.20
2023-05-21T06:37:09.786Z,19.30
2023-05-21T06:39:36.544Z,19.50
2023-05-21T06:42:03.458Z,19.70
2023-05-21T06:44:30.483Z,19.90
2023-05-21T06:46:58.983Z,20.10
2023-05-21T06:49:25.828Z,20.30
2023-05-21T06:51:52.852Z,20.50
2023-05-21T06:54:19.677Z,20.60
2023-05-21T06:56:46.539Z,20.70
2023-05-21T06:59:13.562Z,21.00
2023-05-21T07:01:40.514Z,21.20
2023-05-21T07:04:08.974Z,21.20
2023-05-21T07:06:36.331Z,21.30
2023-05-21T07:09:03.278Z,21.50
2023-05-21T07:11:30.132Z,21.70
2023-05-21T07:13:58.476Z,21.90
2023-05-21T07:16:25.326Z,22.00
2023-05-21T07:18:52.222Z,22.20
2023-05-21T07:21:20.549Z,22.40
2023-05-21T07:23:47.410Z,22.60
2023-05-21T07:26:14.229Z,22.70
2023-05-21T07:28:41.095Z,22.80
2023-05-21T07:31:08.021Z,22.90
2023-05-21T07:33:34.843Z,23.00
2023-05-21T07:36:01.668Z,23.00
2023-05-21T07:38:29.902Z,23.00
2023-05-21T07:40:56.728Z,23.00
2023-05-21T07:43:23.527Z,23.10
2023-05-21T07:45:50.324Z,23.10
2023-05-21T07:48:17.863Z,23.10
2023-05-21T07:50:44.649Z,23.10
2023-05-21T07:53:11.645Z,23.10
2023-05-21T07:55:39.858Z,23.10
2023-05-21T07:58:06.647Z,23.10
2023-05-21T08:00:42.813Z,23.10
2023-05-21T08:03:09.729Z,23.00
2023-05-21T08:05:36.809Z,22.90
2023-05-21T08:08:03.835Z,22.80
2023-05-21T08:10:30.705Z,22.70
2023-05-21T08:12:58.841Z,22.60
2023-05-21T08:15:25.663Z,22.60
2023-05-21T08:17:52.447Z,22.60
2023-05-21T08:20:19.500Z,22.60
2023-05-21T08:22:46.360Z,22.60
2023-05-21T08:25:13.221Z,22.50
2023-05-21T08:27:39.992Z,22.60
2023-05-21T08:30:09.285Z,22.60
2023-05-21T08:32:36.104Z,22.70
2023-05-21T08:35:03.106Z,22.70
2023-05-21T08:37:29.925Z,22.80
2023-05-21T08:39:56.727Z,23.00
2023-05-21T08:45:05.568Z,23.40
2023-05-21T08:47:36.184Z,23.50
2023-05-21T08:50:04.439Z,23.70
2023-05-21T08:52:31.565Z,23.90
2023-05-21T08:54:59.029Z,24.10
2023-05-21T08:57:26.882Z,24.30
2023-05-21T08:59:54.275Z,24.60
2023-05-21T09:02:21.614Z,24.80
2023-05-21T09:04:50.784Z,25.00
2023-05-21T09:07:18.458Z,25.40
2023-05-21T09:09:50.827Z,25.60
2023-05-21T09:12:17.732Z,25.80
2023-05-21T09:14:44.846Z,26.10
2023-05-21T09:17:13.920Z,26.30
2023-05-21T09:20:05.673Z,26.50
2023-05-21T09:22:32.810Z,26.60
2023-05-21T09:24:59.608Z,26.60
2023-05-21T09:27:26.385Z,26.70
2023-05-21T09:29:53.229Z,26.90
2023-05-21T09:32:20.060Z,27.10
2023-05-21T09:34:48.031Z,27.30
2023-05-21T09:37:26.588Z,27.50
2023-05-21T09:39:54.196Z,27.60
2023-05-21T09:42:21.104Z,27.90
2023-05-21T09:44:47.966Z,28.10
2023-05-21T09:47:19.909Z,28.20
2023-05-21T09:49:46.864Z,28.40
2023-05-21T09:52:13.841Z,28.50
2023-05-21T09:54:41.982Z,28.60
2023-05-21T09:57:08.902Z,28.70
2023-05-21T09:59:36.567Z,28.70
2023-05-21T10:02:03.911Z,28.80
2023-05-21T10:04:31.473Z,28.70
2023-05-21T10:06:59.928Z,28.80
2023-05-21T10:09:29.037Z,28.70
2023-05-21T10:11:58.694Z,28.80
2023-05-21T10:14:30.178Z,29.00
2023-05-21T10:16:57.251Z,29.10
2023-05-21T10:19:25.615Z,29.30
2023-05-21T10:21:54.033Z,29.30
2023-05-21T10:24:21.992Z,29.40
2023-05-21T10:26:49.329Z,29.50
2023-05-21T10:29:19.832Z,29.50
2023-05-21T10:31:46.890Z,29.60
2023-05-21T10:34:14.526Z,29.70
2023-05-21T10:36:41.662Z,29.80
2023-05-21T10:39:09.613Z,29.90
2023-05-21T10:41:46.709Z,30.00
2023-05-21T10:44:25.659Z,30.00
2023-05-21T10:47:21.436Z,30.20
2023-05-21T10:50:01.551Z,30.30
2023-05-21T10:52:44.410Z,30.40
2023-05-21T10:55:37.512Z,30.50
2023-05-21T10:58:26.529Z,30.40
2023-05-21T11:00:56.400Z,30.20
2023-05-21T11:03:24.399Z,30.10
2023-05-21T11:05:53.916Z,30.00
2023-05-21T11:08:25.356Z,30.00
2023-05-21T11:10:53.986Z,30.00
2023-05-21T11:13:21.409Z,30.10
2023-05-21T11:16:06.972Z,30.20
2023-05-21T11:19:02.227Z,30.40
2023-05-21T11:21:34.766Z,30.70
2023-05-21T11:24:07.713Z,30.80
2023-05-21T11:27:00.046Z,30.90
2023-05-21T11:29:35.945Z,31.20
2023-05-21T11:32:04.503Z,31.50
2023-05-21T11:34:38.497Z,31.80
2023-05-21T11:37:38.741Z,31.90
2023-05-21T11:40:19.843Z,31.90
2023-05-21T11:42:50.274Z,32.10
2023-05-21T11:45:18.785Z,32.30
2023-05-21T11:47:47.338Z,32.40
2023-05-21T11:50:14.906Z,32.40
2023-05-21T11:52:42.474Z,32.40
2023-05-21T11:55:10.186Z,32.50
2023-05-21T11:57:37.936Z,32.40
2023-05-21T12:00:06.136Z,32.50
2023-05-21T12:02:33.418Z,32.80
2023-05-21T12:05:01.716Z,33.00
2023-05-21T12:07:29.154Z,33.10
2023-05-21T12:09:56.172Z,33.20
2023-05-21T12:12:24.929Z,33.20
2023-05-21T12:14:53.326Z,33.20
2023-05-21T12:17:20.919Z,33.00
2023-05-21T12:19:48.477Z,32.70
2023-05-21T12:22:16.717Z,32.60
2023-05-21T12:24:44.433Z,32.50
2023-05-21T12:27:12.207Z,32.50
2023-05-21T12:29:39.821Z,32.40
2023-05-21T12:32:07.929Z,32.40
2023-05-21T12:34:42.172Z,32.30
2023-05-21T12:37:09.062Z,32.40
2023-05-21T12:39:42.646Z,32.70
2023-05-21T12:42:09.544Z,33.30
2023-05-21T12:44:38.213Z,34.60
2023-05-21T12:47:05.125Z,36.40
2023-05-21T12:49:34.336Z,38.00
2023-05-21T12:52:07.925Z,39.30
2023-05-21T12:54:35.962Z,40.60
2023-05-21T12:57:16.205Z,41.90
2023-05-21T12:59:48.140Z,42.80
2023-05-21T13:02:19.725Z,43.70
2023-05-21T13:04:46.716Z,44.60
2023-05-21T13:07:14.020Z,45.40
2023-05-21T13:09:40.801Z,45.90
2023-05-21T13:12:07.846Z,45.70
2023-05-21T13:14:36.012Z,46.30
2023-05-21T13:17:02.928Z,47.20
2023-05-21T13:19:29.928Z,48.10
2023-05-21T13:21:56.861Z,48.90
2023-05-21T13:24:23.730Z,49.40
2023-05-21T13:26:50.516Z,48.70
2023-05-21T13:29:17.311Z,47.80
2023-05-21T13:31:45.500Z,47.00
2023-05-21T13:34:12.607Z,46.10
2023-05-21T13:36:39.646Z,45.80
2023-05-21T13:39:06.558Z,46.50
2023-05-21T13:41:33.457Z,47.50
2023-05-21T13:44:00.269Z,48.10
2023-05-21T13:46:27.248Z,47.70
2023-05-21T13:48:55.492Z,47.80
2023-05-21T13:51:37.426Z,47.70
2023-05-21T13:54:05.626Z,46.30
2023-05-21T13:56:32.447Z,43.80
2023-05-21T13:58:59.301Z,42.20
2023-05-21T14:01:26.154Z,41.80
2023-05-21T14:03:53.040Z,42.10
2023-05-21T14:06:21.253Z,42.70
2023-05-21T14:08:48.192Z,43.20
2023-05-21T14:11:15.064Z,43.80
2023-05-21T14:13:41.867Z,44.50
2023-05-21T14:16:08.708Z,45.10
2023-05-21T14:18:35.582Z,44.90
2023-05-21T14:21:02.376Z,45.10
2023-05-21T14:23:30.527Z,45.60
2023-05-21T14:25:57.293Z,46.00
2023-05-21T14:28:24.122Z,46.50
2023-05-21T14:30:50.921Z,47.10
2023-05-21T14:33:17.789Z,47.40
2023-05-21T14:35:44.818Z,47.80
2023-05-21T14:38:11.842Z,47.90
2023-05-21T14:40:40.146Z,47.80
2023-05-21T14:43:06.938Z,47.60
2023-05-21T14:45:33.728Z,47.90
2023-05-21T14:48:00.878Z,47.90
2023-05-21T14:50:27.797Z,47.70
2023-05-21T14:52:54.588Z,47.90
2023-05-21T14:55:21.519Z,48.60
2023-05-21T14:57:49.737Z,48.80
2023-05-21T15:00:16.688Z,48.80
2023-05-21T15:02:43.558Z,48.40
2023-05-21T15:05:10.478Z,47.60
2023-05-21T15:07:37.334Z,46.50
2023-05-21T15:10:04.785Z,45.60
2023-05-21T15:12:31.721Z,44.90
2023-05-21T15:14:59.911Z,44.50
2023-05-21T15:17:26.750Z,44.20
2023-05-21T15:19:53.530Z,44.30
2023-05-21T15:22:20.284Z,44.50
2023-05-21T15:24:47.140Z,44.80
2023-05-21T15:27:14.008Z,44.80
2023-05-21T15:29:40.835Z,44.60
2023-05-21T15:32:09.026Z,44.40
2023-05-21T15:34:36.004Z,44.10
2023-05-21T15:37:02.837Z,43.80
2023-05-21T15:39:30.290Z,43.40
2023-05-21T15:41:57.231Z,43.10
2023-05-21T15:44:25.244Z,42.70
2023-05-21T15:46:52.276Z,42.40
2023-05-21T15:49:20.711Z,42.50
2023-05-21T15:51:48.412Z,42.20
2023-05-21T15:54:15.267Z,41.20
2023-05-21T15:56:43.414Z,40.70
2023-05-21T15:59:10.200Z,40.60
2023-05-21T16:01:37.110Z,40.40
2023-05-21T16:04:04.105Z,40.60
2023-05-21T16:06:32.384Z,40.70
2023-05-21T16:08:59.907Z,40.60
2023-05-21T16:11:27.653Z,40.50
2023-05-21T16:13:54.701Z,40.50
2023-05-21T16:16:24.556Z,40.40
2023-05-21T16:18:51.699Z,40.00
2023-05-21T16:21:18.561Z,39.70
2023-05-21T16:23:46.744Z,39.20
2023-05-21T16:26:13.710Z,38.90
2023-05-21T16:28:40.525Z,38.50
2023-05-21T16:31:07.360Z,38.00
2023-05-21T16:33:34.248Z,37.80
2023-05-21T16:36:01.110Z,37.70
2023-05-21T16:38:27.965Z,37.30
2023-05-21T16:40:56.159Z,37.20
2023-05-21T16:43:22.989Z,37.30
2023-05-21T16:45:49.960Z,37.30
2023-05-21T16:48:16.893Z,37.20
2023-05-21T16:50:43.757Z,37.20
2023-05-21T16:53:10.685Z,37.30
2023-05-21T16:55:38.006Z,36.80
2023-05-21T16:58:07.010Z,36.30
2023-05-21T17:00:34.529Z,35.70
2023-05-21T17:03:01.448Z,35.40
2023-05-21T17:05:28.345Z,35.20
2023-05-21T17:07:55.135Z,35.30
2023-05-21T17:10:23.201Z,35.90
2023-05-21T17:12:49.986Z,36.80
2023-05-21T17:15:18.123Z,37.60
2023-05-21T17:17:44.958Z,37.90
2023-05-21T17:20:12.932Z,37.60
2023-05-21T17:22:39.794Z,37.20
2023-05-21T17:25:07.831Z,36.80
2023-05-21T17:27:34.777Z,36.80
2023-05-21T17:30:01.611Z,36.80
2023-05-21T17:32:29.774Z,36.70
2023-05-21T17:34:56.656Z,36.30
2023-05-21T17:37:23.513Z,35.30
2023-05-21T17:39:50.357Z,34.70
2023-05-21T17:42:17.626Z,34.60
2023-05-21T17:44:44.554Z,34.80
2023-05-21T17:47:11.430Z,34.80
2023-05-21T17:49:39.801Z,34.50
2023-05-21T17:52:07.183Z,33.90
2023-05-21T17:54:33.982Z,33.40
2023-05-21T17:57:00.823Z,32.90
2023-05-21T17:59:27.643Z,32.10
2023-05-21T18:01:54.531Z,31.50
2023-05-21T18:04:21.331Z,30.90
2023-05-21T18:06:49.712Z,30.30
2023-05-21T18:09:16.511Z,29.60
2023-05-21T18:11:43.619Z,29.10
2023-05-21T18:14:10.429Z,28.50
2023-05-21T18:16:37.386Z,28.10
2023-05-21T18:19:04.371Z,27.60
2023-05-21T18:21:31.519Z,27.20
2023-05-21T18:24:00.117Z,26.80
2023-05-21T18:26:27.073Z,26.40
2023-05-21T18:28:56.112Z,26.00
2023-05-21T18:31:23.283Z,25.70
2023-05-21T18:33:50.660Z,25.50
2023-05-21T18:36:17.668Z,25.30
2023-05-21T18:38:45.645Z,25.20
2023-05-21T18:41:14.100Z,24.90
2023-05-21T18:43:41.168Z,24.60
2023-05-21T18:46:08.304Z,24.30
2023-05-21T18:48:35.226Z,24.00
2023-05-21T18:51:02.200Z,23.70
2023-05-21T18:53:29.291Z,23.40
2023-05-21T18:55:56.472Z,23.10
2023-05-21T18:58:27.870Z,22.90
2023-05-21T19:00:54.876Z,22.70
2023-05-21T19:03:22.355Z,22.60
2023-05-21T19:05:50.632Z,22.40
2023-05-21T19:08:19.699Z,22.20
2023-05-21T19:10:48.164Z,22.10
2023-05-21T19:13:18.683Z,22.00
2023-05-21T19:15:47.370Z,21.80
2023-05-21T19:18:14.474Z,21.70
2023-05-21T19:20:41.782Z,21.50
2023-05-21T19:23:08.981Z,21.40
2023-05-21T19:25:36.148Z,21.30
2023-05-21T19:28:03.351Z,21.20
2023-05-21T19:30:30.459Z,21.10
2023-05-21T19:32:59.038Z,21.00
2023-05-21T19:35:25.956Z,20.90
2023-05-21T19:37:52.858Z,20.90
2023-05-21T19:40:19.858Z,20.80
2023-05-21T19:42:46.856Z,20.70
2023-05-21T19:45:13.967Z,20.60
2023-05-21T19:47:40.918Z,20.60
2023-05-21T19:50:11.259Z,20.50
2023-05-21T19:52:38.537Z,20.40
2023-05-21T19:55:06.943Z,20.30
2023-05-21T19:57:34.474Z,20.20
2023-05-21T20:00:01.640Z,20.10
2023-05-21T20:02:28.797Z,20.00
2023-05-21T20:04:55.978Z,20.00
2023-05-21T20:07:24.344Z,19.90
2023-05-21T20:09:51.189Z,19.80
2023-05-21T20:12:18.246Z,19.80
2023-05-21T20:14:45.166Z,19.70
2023-05-21T20:17:12.158Z,19.60
2023-05-21T20:19:39.235Z,19.50
2023-05-21T20:22:06.642Z,19.40
2023-05-21T20:24:34.847Z,19.30
2023-05-21T20:27:01.911Z,19.30
2023-05-21T20:29:29.079Z,19.20
2023-05-21T20:31:56.134Z,19.10
2023-05-21T20:34:22.980Z,19.00
2023-05-21T20:36:50.020Z,18.90
2023-05-21T20:39:17.157Z,18.80
2023-05-21T20:41:45.867Z,18.80
2023-05-21T20:44:12.811Z,18.70
2023-05-21T20:46:40.120Z,18.60
2023-05-21T20:49:07.374Z,18.50
2023-05-21T20:51:34.237Z,18.50
2023-05-21T20:54:01.116Z,18.40
2023-05-21T20:56:40.720Z,18.30
2023-05-21T20:59:11.373Z,18.30
2023-05-21T21:01:38.747Z,18.20
2023-05-21T21:04:06.740Z,18.20
2023-05-21T21:06:33.714Z,18.20
2023-05-21T21:09:00.615Z,18.10
2023-05-21T21:11:27.533Z,18.10
2023-05-21T21:13:54.459Z,18.10
2023-05-21T21:16:22.707Z,18.10
2023-05-21T21:18:49.997Z,18.10
2023-05-21T21:21:16.892Z,18.10
2023-05-21T21:23:43.770Z,18.10
2023-05-21T21:26:10.620Z,18.10
2023-05-21T21:28:38.634Z,18.00
2023-05-21T21:31:08.541Z,18.00
2023-05-21T21:33:36.839Z,17.90
2023-05-21T21:36:04.522Z,17.80
2023-05-21T21:38:32.176Z,17.80
2023-05-21T21:40:59.153Z,17.70
2023-05-21T21:43:26.013Z,17.60
2023-05-21T21:45:53.066Z,17.50
2023-05-21T21:48:20.661Z,17.50
2023-05-21T21:50:48.970Z,17.40
2023-05-21T21:53:15.836Z,17.40
2023-05-21T21:55:42.855Z,17.30
2023-05-21T21:58:09.987Z,17.30
2023-05-21T22:00:37.259Z,17.20
2023-05-21T22:03:04.465Z,17.10
2023-05-21T22:05:34.082Z,17.10
2023-05-21T22:08:02.441Z,17.00
2023-05-21T22:10:29.337Z,16.90
2023-05-21T22:12:56.237Z,16.80
2023-05-21T22:15:23.262Z,16.80
2023-05-21T22:17:50.613Z,16.70
2023-05-21T22:20:17.678Z,16.60
2023-05-21T22:22:44.807Z,16.60
2023-05-21T22:25:13.186Z,16.50
2023-05-21T22:27:40.656Z,16.50
2023-05-21T22:30:09.065Z,16.40
2023-05-21T22:32:36.148Z,16.40
2023-05-21T22:35:03.366Z,16.30
2023-05-21T22:37:33.177Z,16.30
2023-05-21T22:40:00.173Z,16.20
2023-05-21T22:42:28.493Z,16.10
2023-05-21T22:44:55.461Z,16.10
2023-05-21T22:47:22.394Z,16.00
2023-05-21T22:49:49.417Z,16.00
2023-05-21T22:52:16.212Z,16.00
2023-05-21T22:54:43.051Z,15.90
2023-05-21T22:57:09.971Z,15.90
2023-05-21T22:59:38.324Z,15.90
2023-05-21T23:02:05.695Z,15.80
2023-05-21T23:04:43.484Z,15.80
2023-05-21T23:07:11.582Z,15.80
2023-05-21T23:09:38.605Z,15.70
2023-05-21T23:12:06.494Z,15.60
2023-05-21T23:14:33.874Z,15.60
2023-05-21T23:17:02.614Z,15.60
2023-05-21T23:19:30.039Z,15.60
2023-05-21T23:21:57.240Z,15.50
2023-05-21T23:24:24.412Z,15.50
2023-05-21T23:26:52.333Z,15.40
2023-05-21T23:29:19.338Z,15.30
2023-05-21T23:31:46.399Z,15.30
2023-05-21T23:34:15.142Z,15.20
2023-05-21T23:36:42.338Z,15.20
2023-05-21T23:39:09.440Z,15.10
2023-05-21T23:41:37.486Z,15.00
2023-05-21T23:44:04.948Z,15.00
2023-05-21T23:46:32.014Z,14.90
2023-05-21T23:48:58.906Z,14.80
2023-05-21T23:51:27.449Z,14.80
2023-05-21T23:53:54.613Z,14.80
2023-05-21T23:56:21.779Z,14.70
2023-05-21T23:58:48.878Z,14.70
